x

Gulf Of Maine - 78 Nm East Of Portsmouth, Nh (44005) Wave Buoy

2:50am - Fri 29th Jul 2016 All times are EDT. -4 hours from GMT.

  • Sig Wave height 2.3ft
  • Swell Direction
  • Peak Period 5s
  • Average Period 4s
  • Wind
    13mph, 16mph gusts
  • Sea Temp 72°f
  • Air Temp 72°f
  • Sea Pressure 1011.1mb
  • Gulf Of Maine - 78 Nm East Of Portsmouth, Nh
  • Gulf Of Maine - 78 Nm East Of Portsmouth, Nh

More Historic Weather Station data

Upgrade to MSW Pro to gain access to the past 30 days of data for over 8000 Wavebouys and Weather Stations around the globe.

Join Pro

Comparision Forecast

View Surf forecast
   
Fri 07/29 2:50am 2.5ft 5s 4s 13 16 mph 1011.1mb 72f 72f
1:50am 2.5ft 5s 4s 13 16 mph 1011.1mb 72f 73f
12:50am 2.5ft 5s 4s 11 13 mph 1011.5mb 72f 73f
Thu 07/28 11:50pm 2.5ft 5s 4s 13
mph
1011.8mb 72f 73f
10:50pm 2.5ft 5s 4s 7 9 mph 1012.2mb 72f 75f
9:50pm 2.5ft 4s 4s 7 9 mph 1012.3mb 72f 75f
8:50pm 2ft 4s 4s 16 18 mph 1011.4mb 72f 74f
6:50pm 1.6ft 3s 4s 13 16 mph 1010.8mb 73f 74f
5:50pm 1.6ft 6s 4s 16 18 mph 1010.4mb 73f 73f
4:50pm 1.6ft 6s 4s 13 16 mph 1010.1mb 73f 73f
3:50pm 1.6ft 6s 4s 13
mph
1010.7mb 73f 73f
1:50pm 1.3ft 6s 4s 11 13 mph 1011.6mb 73f 73f
12:50pm 1.3ft 7s 4s 11
mph
1012.2mb 72f 72f
11:50am 1.3ft 7s 4s 11
mph
1012.5mb 72f 72f
10:50am 1.3ft 7s 5s 9 11 mph 1012.7mb 72f 72f
9:50am 1.3ft 7s 4s 9
mph
1012.6mb 71f 72f
8:50am 1.3ft 7s 4s 9
mph
1012.4mb 71f 71f
7:50am 1.6ft 7s 4s 9 11 mph 1012.3mb 71f 71f
6:50am 1.3ft 7s 5s 9 11 mph 1012.2mb 71f 71f
5:50am 1.3ft 6s 4s 7
mph
1012.2mb 71f 71f
4:50am 1.6ft 6s 5s 7 9 mph 1012mb 71f 71f
3:50am 1.6ft 6s 4s 7 9 mph 1011.9mb 71f 71f
2:50am 1.6ft 7s 4s 9
mph
1011.7mb 71f 72f
1:50am 1.6ft 6s 4s 9
mph
1012.2mb 71f 72f
12:50am 1.6ft 7s 4s 9 11 mph 1012.3mb 71f 72f
Wed 07/27 11:50pm 1.6ft 7s 4s 11 13 mph 1012.6mb 71f 72f
10:50pm 1.6ft 7s 4s 11 13 mph 1012.5mb 71f 72f
9:50pm 1.6ft 8s 5s 11 13 mph 1012.2mb 72f 72f
8:50pm 1.6ft 7s 5s 11 13 mph 1012.2mb 72f 72f
7:50pm 1.6ft 7s 5s 9 11 mph 1011.9mb 72f 73f
6:50pm 1.6ft 6s 5s 9 11 mph 1011.9mb 73f 73f
5:50pm 1.6ft 6s 6s 11 13 mph 1011.8mb 74f 74f
4:50pm 1.6ft 6s 6s 9 11 mph 1011.9mb 75f 74f
3:50pm 2ft 7s 6s 7
mph
1012.2mb 75f 74f
2:50pm 2ft 7s 6s 2
mph
1012.8mb 74f 74f
1:50pm 1.6ft 7s 6s 4
mph
1013.1mb 73f 73f
12:50pm 1.6ft 8s 6s 7
mph
1013.4mb 73f 72f
11:50am 1.6ft 7s 6s 7
mph
1013.4mb 72f 72f
10:50am 1.6ft 8s 6s 7
mph
1013.2mb 72f 71f
9:50am 1.6ft 8s 6s 7 9 mph 1012.8mb 71f 71f
8:50am 1.6ft 7s 5s 7
mph
1012.6mb 71f 71f
7:50am 1.6ft 8s 5s 7
mph
1012.5mb 71f 71f
6:50am 1.6ft 7s 4s 7 9 mph 1012.3mb 70f 71f
5:50am 1.6ft 7s 4s 7 9 mph 1011.8mb 70f 71f
4:50am 1.6ft 8s 4s 9 11 mph 1011.3mb 71f 71f
3:50am 1.6ft 6s 4s 11 13 mph 1010.9mb 71f 72f
2:50am 1.6ft 3s 3s 11 13 mph 1010.6mb 71f 73f
1:50am 1.3ft 7s 4s 13
mph
1010.8mb 71f 73f
12:50am 1.3ft 7s 4s 11 13 mph 1011mb 71f 73f
Tue 07/26 11:50pm 1.3ft 7s 5s 9 11 mph 1010.9mb 71f 73f
10:50pm 1.3ft 8s 5s 9
mph
1010.2mb 71f 74f
9:50pm 1.3ft 8s 5s 9
mph
1009.9mb 72f 74f
8:50pm 1.3ft 5s 4s 9 11 mph 1009.2mb 72f 73f
7:50pm 1.3ft 4s 4s 11
mph
1008.3mb 72f 74f
6:50pm 1.6ft 9s 4s 7
mph
1007.9mb 72f 74f
5:50pm 1.6ft 4s 4s 9
mph
1007.6mb 72f 74f
4:50pm 1.6ft 5s 4s 11 13 mph 1007.5mb 72f 74f
3:50pm 1.6ft 4s 4s 9 11 mph 1007.5mb 72f 74f
2:50pm 2ft 4s 4s 9
mph
1007.7mb 71f 73f
1:50pm 2ft 5s 4s 9 11 mph 1007.8mb 71f 72f
12:50pm 2ft 5s 4s 9
mph
1007.7mb 71f 71f
11:50am 2.5ft 5s 4s 9 11 mph 1007.8mb 70f 71f
10:50am 2.5ft 5s 5s 11
mph
1007.8mb 70f 71f
9:50am 2.5ft 6s 5s 9 11 mph 1007.6mb 70f 70f
8:50am 2.5ft 6s 5s 11
mph
1007.5mb 70f 69f
7:50am 3ft 5s 5s 13 16 mph 1007.6mb 70f 69f
6:50am 2.5ft 6s 5s 13 16 mph 1007.2mb 70f 70f
5:50am 3ft 6s 5s 11
mph
1006.9mb 70f 70f
4:50am 3ft 6s 5s 9 11 mph 1006.2mb 70f 70f
3:50am 3.5ft 5s 5s 11 13 mph 1006.1mb 70f 70f
2:50am 3.5ft 6s 5s 11 13 mph 1006.2mb 69f 71f
1:50am 4.5ft 6s 5s 11 13 mph 1006.6mb 70f 71f
12:50am 4ft 6s 5s 13 16 mph 1007.1mb 70f 72f
Mon 07/25 11:50pm 4ft 5s 4s 16 20 mph 1007.2mb 70f 72f
10:50pm 2.5ft 4s 4s 20 25 mph 1008mb 70f 73f
9:50pm 2ft 3s 4s 22 27 mph 1007.7mb 71f 73f
8:50pm 1.6ft 7s 4s 18 22 mph 1008.6mb 71f 72f
7:50pm 1.6ft 8s 4s 13 16 mph 1008.9mb 71f 71f
6:50pm 1.6ft 7s 4s 11 13 mph 1009.1mb 71f 70f
5:50pm 1.6ft 7s 5s 11
mph
1009.6mb 70f 70f
4:50pm 1.6ft 6s 5s 11 13 mph 1010.1mb 71f 70f
3:50pm 1.6ft 6s 5s 9 11 mph 1011.1mb 71f 70f
1:50pm 2ft 7s 6s 11
mph
1012.4mb 70f 70f
12:50pm 2ft 7s 6s 11 13 mph 1013.2mb 71f 70f
11:50am 1.6ft 7s 6s 9 11 mph 1013.4mb 71f 70f
10:50am 1.6ft 7s 6s 9
mph
1013.7mb 70f 70f
9:50am 1.6ft 7s 5s 4
mph
1014mb 70f 70f